sensor_id;sensor_type;location;lat;lon;timestamp;pressure;altitude;pressure_sealevel;temperature;humidity
22647;BME280;11490;42.726;23.268;2023-12-14T00:00:26;94235.44;;;5.39;100.00
22647;BME280;11490;42.726;23.268;2023-12-14T00:02:51;94231.56;;;4.88;100.00
22647;BME280;11490;42.726;23.268;2023-12-14T00:05:17;94209.53;;;5.06;100.00
22647;BME280;11490;42.726;23.268;2023-12-14T00:07:42;94213.56;;;5.09;100.00
22647;BME280;11490;42.726;23.268;2023-12-14T00:10:08;94207.78;;;4.88;100.00
22647;BME280;11490;42.726;23.268;2023-12-14T00:12:33;94237.69;;;5.00;100.00
22647;BME280;11490;42.726;23.268;2023-12-14T00:14:59;94204.81;;;4.96;100.00
22647;BME280;11490;42.726;23.268;2023-12-14T00:17:26;94227.81;;;5.08;100.00
22647;BME280;11490;42.726;23.268;2023-12-14T00:19:52;94232.06;;;5.20;100.00
22647;BME280;11490;42.726;23.268;2023-12-14T00:22:17;94222.38;;;4.91;100.00
22647;BME280;11490;42.726;23.268;2023-12-14T00:24:42;94199.41;;;4.80;100.00
22647;BME280;11490;42.726;23.268;2023-12-14T00:27:08;94190.41;;;4.81;100.00
22647;BME280;11490;42.726;23.268;2023-12-14T00:29:33;94214.16;;;5.11;100.00
22647;BME280;11490;42.726;23.268;2023-12-14T00:31:58;94212.69;;;4.73;100.00
22647;BME280;11490;42.726;23.268;2023-12-14T00:34:24;94243.28;;;4.92;100.00
22647;BME280;11490;42.726;23.268;2023-12-14T00:36:49;94250.25;;;4.75;100.00
22647;BME280;11490;42.726;23.268;2023-12-14T00:39:15;94222.31;;;5.09;100.00
22647;BME280;11490;42.726;23.268;2023-12-14T00:41:42;94262.22;;;4.89;100.00
22647;BME280;11490;42.726;23.268;2023-12-14T00:44:08;94217.56;;;4.58;100.00
22647;BME280;11490;42.726;23.268;2023-12-14T00:46:33;94196.03;;;4.73;100.00
22647;BME280;11490;42.726;23.268;2023-12-14T00:48:58;94210.84;;;4.62;100.00
22647;BME280;11490;42.726;23.268;2023-12-14T00:51:24;94235.09;;;4.82;100.00
22647;BME280;11490;42.726;23.268;2023-12-14T00:53:49;94262.94;;;4.96;100.00
22647;BME280;11490;42.726;23.268;2023-12-14T00:56:15;94223.41;;;4.78;100.00
22647;BME280;11490;42.726;23.268;2023-12-14T00:58:40;94236.75;;;5.07;100.00
22647;BME280;11490;42.726;23.268;2023-12-14T01:01:05;94262.06;;;5.02;100.00
22647;BME280;11490;42.726;23.268;2023-12-14T01:03:31;94222.22;;;4.74;100.00
22647;BME280;11490;42.726;23.268;2023-12-14T01:05:57;94217.53;;;4.88;100.00
22647;BME280;11490;42.726;23.268;2023-12-14T01:08:23;94223.72;;;4.82;100.00
22647;BME280;11490;42.726;23.268;2023-12-14T01:10:48;94223.22;;;5.15;100.00
22647;BME280;11490;42.726;23.268;2023-12-14T01:13:13;94235.53;;;4.68;100.00
22647;BME280;11490;42.726;23.268;2023-12-14T01:15:39;94230.28;;;4.79;100.00
22647;BME280;11490;42.726;23.268;2023-12-14T01:18:04;94178.94;;;4.75;100.00
22647;BME280;11490;42.726;23.268;2023-12-14T01:20:29;94231.63;;;4.70;100.00
22647;BME280;11490;42.726;23.268;2023-12-14T01:22:55;94199.69;;;4.60;100.00
22647;BME280;11490;42.726;23.268;2023-12-14T01:25:20;94199.72;;;4.72;100.00
22647;BME280;11490;42.726;23.268;2023-12-14T01:27:46;94199.94;;;4.70;100.00
22647;BME280;11490;42.726;23.268;2023-12-14T01:30:11;94237.09;;;4.87;100.00
22647;BME280;11490;42.726;23.268;2023-12-14T01:32:37;94219.78;;;5.02;100.00
22647;BME280;11490;42.726;23.268;2023-12-14T01:35:03;94248.00;;;4.90;100.00
22647;BME280;11490;42.726;23.268;2023-12-14T01:37:28;94217.69;;;5.04;100.00
22647;BME280;11490;42.726;23.268;2023-12-14T01:39:53;94208.09;;;4.80;100.00
22647;BME280;11490;42.726;23.268;2023-12-14T01:42:19;94185.34;;;4.56;100.00
22647;BME280;11490;42.726;23.268;2023-12-14T01:44:44;94166.19;;;4.72;100.00
22647;BME280;11490;42.726;23.268;2023-12-14T01:47:10;94205.72;;;4.90;100.00
22647;BME280;11490;42.726;23.268;2023-12-14T01:49:35;94231.59;;;5.12;100.00
22647;BME280;11490;42.726;23.268;2023-12-14T01:52:00;94193.78;;;4.99;100.00
22647;BME280;11490;42.726;23.268;2023-12-14T01:54:26;94201.59;;;4.94;100.00
22647;BME280;11490;42.726;23.268;2023-12-14T01:56:51;94181.84;;;4.85;100.00
22647;BME280;11490;42.726;23.268;2023-12-14T01:59:17;94221.50;;;5.09;100.00
22647;BME280;11490;42.726;23.268;2023-12-14T02:01:44;94234.50;;;5.22;100.00
22647;BME280;11490;42.726;23.268;2023-12-14T02:04:11;94176.75;;;4.72;100.00
22647;BME280;11490;42.726;23.268;2023-12-14T02:06:37;94196.19;;;4.89;100.00
22647;BME280;11490;42.726;23.268;2023-12-14T02:09:03;94167.81;;;4.96;100.00
22647;BME280;11490;42.726;23.268;2023-12-14T02:11:28;94211.47;;;4.87;100.00
22647;BME280;11490;42.726;23.268;2023-12-14T02:13:54;94167.72;;;5.03;100.00
22647;BME280;11490;42.726;23.268;2023-12-14T02:16:19;94202.28;;;4.90;100.00
22647;BME280;11490;42.726;23.268;2023-12-14T02:18:45;94156.81;;;4.99;100.00
22647;BME280;11490;42.726;23.268;2023-12-14T02:21:10;94165.94;;;4.62;100.00
22647;BME280;11490;42.726;23.268;2023-12-14T02:23:43;94168.50;;;5.03;100.00
22647;BME280;11490;42.726;23.268;2023-12-14T02:26:08;94197.56;;;4.92;100.00
22647;BME280;11490;42.726;23.268;2023-12-14T02:28:34;94181.13;;;4.90;100.00
22647;BME280;11490;42.726;23.268;2023-12-14T02:30:59;94168.66;;;5.09;100.00
22647;BME280;11490;42.726;23.268;2023-12-14T02:33:25;94183.19;;;4.76;100.00
22647;BME280;11490;42.726;23.268;2023-12-14T02:35:50;94133.56;;;4.55;100.00
22647;BME280;11490;42.726;23.268;2023-12-14T02:38:15;94196.84;;;4.73;100.00
22647;BME280;11490;42.726;23.268;2023-12-14T02:40:41;94133.78;;;4.65;100.00
22647;BME280;11490;42.726;23.268;2023-12-14T02:43:06;94220.91;;;4.53;100.00
22647;BME280;11490;42.726;23.268;2023-12-14T02:45:32;94159.34;;;4.94;100.00
22647;BME280;11490;42.726;23.268;2023-12-14T02:47:57;94203.72;;;4.74;100.00
22647;BME280;11490;42.726;23.268;2023-12-14T02:50:22;94148.88;;;4.99;100.00
22647;BME280;11490;42.726;23.268;2023-12-14T02:52:48;94157.03;;;5.10;100.00
22647;BME280;11490;42.726;23.268;2023-12-14T02:55:13;94199.91;;;5.47;100.00
22647;BME280;11490;42.726;23.268;2023-12-14T02:57:38;94199.44;;;5.38;100.00
22647;BME280;11490;42.726;23.268;2023-12-14T03:00:04;94165.66;;;5.17;100.00
22647;BME280;11490;42.726;23.268;2023-12-14T03:02:30;94161.97;;;5.06;100.00
22647;BME280;11490;42.726;23.268;2023-12-14T03:04:55;94190.81;;;5.54;100.00
22647;BME280;11490;42.726;23.268;2023-12-14T03:07:21;94211.97;;;5.19;100.00
22647;BME280;11490;42.726;23.268;2023-12-14T03:09:46;94153.44;;;5.51;100.00
22647;BME280;11490;42.726;23.268;2023-12-14T03:12:12;94191.94;;;5.58;100.00
22647;BME280;11490;42.726;23.268;2023-12-14T03:14:37;94191.16;;;5.69;100.00
22647;BME280;11490;42.726;23.268;2023-12-14T03:17:03;94123.69;;;5.55;100.00
22647;BME280;11490;42.726;23.268;2023-12-14T03:19:28;94182.94;;;5.82;100.00
22647;BME280;11490;42.726;23.268;2023-12-14T03:21:54;94175.84;;;5.71;100.00
22647;BME280;11490;42.726;23.268;2023-12-14T03:24:20;94134.66;;;5.75;100.00
22647;BME280;11490;42.726;23.268;2023-12-14T03:26:45;94161.94;;;5.64;100.00
22647;BME280;11490;42.726;23.268;2023-12-14T03:29:11;94173.88;;;5.90;100.00
22647;BME280;11490;42.726;23.268;2023-12-14T03:31:36;94186.41;;;5.95;100.00
22647;BME280;11490;42.726;23.268;2023-12-14T03:34:02;94144.69;;;5.50;100.00
22647;BME280;11490;42.726;23.268;2023-12-14T03:36:28;94112.19;;;5.38;100.00
22647;BME280;11490;42.726;23.268;2023-12-14T03:38:54;94148.97;;;5.51;100.00
22647;BME280;11490;42.726;23.268;2023-12-14T03:41:19;94175.72;;;5.66;100.00
22647;BME280;11490;42.726;23.268;2023-12-14T03:43:45;94139.41;;;5.50;100.00
22647;BME280;11490;42.726;23.268;2023-12-14T03:46:11;94117.13;;;5.46;100.00
22647;BME280;11490;42.726;23.268;2023-12-14T03:48:36;94128.06;;;5.38;100.00
22647;BME280;11490;42.726;23.268;2023-12-14T03:51:05;94111.66;;;5.24;100.00
22647;BME280;11490;42.726;23.268;2023-12-14T03:53:31;94118.44;;;5.32;100.00
22647;BME280;11490;42.726;23.268;2023-12-14T03:55:59;94148.88;;;5.23;100.00
22647;BME280;11490;42.726;23.268;2023-12-14T03:58:25;94114.81;;;5.61;100.00
22647;BME280;11490;42.726;23.268;2023-12-14T04:00:51;94153.00;;;5.42;100.00
22647;BME280;11490;42.726;23.268;2023-12-14T04:03:17;94077.38;;;5.41;100.00
22647;BME280;11490;42.726;23.268;2023-12-14T04:05:42;94135.19;;;5.49;100.00
22647;BME280;11490;42.726;23.268;2023-12-14T04:08:09;94102.16;;;5.63;100.00
22647;BME280;11490;42.726;23.268;2023-12-14T04:10:35;94104.13;;;5.56;100.00
22647;BME280;11490;42.726;23.268;2023-12-14T04:13:00;94125.81;;;5.70;100.00
22647;BME280;11490;42.726;23.268;2023-12-14T04:15:26;94146.84;;;5.76;100.00
22647;BME280;11490;42.726;23.268;2023-12-14T04:17:51;94151.47;;;5.69;100.00
22647;BME280;11490;42.726;23.268;2023-12-14T04:20:17;94159.75;;;5.61;100.00
22647;BME280;11490;42.726;23.268;2023-12-14T04:22:45;94149.19;;;5.61;100.00
22647;BME280;11490;42.726;23.268;2023-12-14T04:25:11;94164.44;;;5.94;100.00
22647;BME280;11490;42.726;23.268;2023-12-14T04:27:36;94156.31;;;5.72;100.00
22647;BME280;11490;42.726;23.268;2023-12-14T04:30:02;94187.03;;;5.62;100.00
22647;BME280;11490;42.726;23.268;2023-12-14T04:32:29;94158.81;;;5.67;100.00
22647;BME280;11490;42.726;23.268;2023-12-14T04:34:55;94118.63;;;5.42;100.00
22647;BME280;11490;42.726;23.268;2023-12-14T04:37:20;94170.91;;;5.52;100.00
22647;BME280;11490;42.726;23.268;2023-12-14T04:39:46;94163.44;;;5.60;100.00
22647;BME280;11490;42.726;23.268;2023-12-14T04:42:11;94123.31;;;5.63;100.00
22647;BME280;11490;42.726;23.268;2023-12-14T04:44:37;94150.47;;;5.35;100.00
22647;BME280;11490;42.726;23.268;2023-12-14T04:47:02;94133.09;;;5.51;100.00
22647;BME280;11490;42.726;23.268;2023-12-14T04:49:27;94172.28;;;5.66;100.00
22647;BME280;11490;42.726;23.268;2023-12-14T04:51:53;94116.81;;;5.31;100.00
22647;BME280;11490;42.726;23.268;2023-12-14T04:54:18;94156.75;;;5.69;100.00
22647;BME280;11490;42.726;23.268;2023-12-14T04:56:47;94203.22;;;5.65;100.00
22647;BME280;11490;42.726;23.268;2023-12-14T04:59:12;94145.50;;;5.51;100.00
22647;BME280;11490;42.726;23.268;2023-12-14T05:01:38;94144.84;;;5.32;100.00
22647;BME280;11490;42.726;23.268;2023-12-14T05:04:03;94151.97;;;5.20;100.00
22647;BME280;11490;42.726;23.268;2023-12-14T05:06:29;94157.38;;;5.48;100.00
22647;BME280;11490;42.726;23.268;2023-12-14T05:08:54;94146.66;;;5.43;100.00
22647;BME280;11490;42.726;23.268;2023-12-14T05:11:21;94150.94;;;5.44;100.00
22647;BME280;11490;42.726;23.268;2023-12-14T05:13:46;94144.19;;;5.25;100.00
22647;BME280;11490;42.726;23.268;2023-12-14T05:16:30;94110.16;;;5.05;100.00
22647;BME280;11490;42.726;23.268;2023-12-14T05:18:55;94150.16;;;5.32;100.00
22647;BME280;11490;42.726;23.268;2023-12-14T05:21:25;94147.84;;;5.12;100.00
22647;BME280;11490;42.726;23.268;2023-12-14T05:23:53;94167.03;;;5.19;100.00
22647;BME280;11490;42.726;23.268;2023-12-14T05:26:19;94146.00;;;5.24;100.00
22647;BME280;11490;42.726;23.268;2023-12-14T05:28:44;94154.84;;;5.30;100.00
22647;BME280;11490;42.726;23.268;2023-12-14T05:31:10;94166.56;;;5.22;100.00
22647;BME280;11490;42.726;23.268;2023-12-14T05:33:39;94158.31;;;5.07;100.00
22647;BME280;11490;42.726;23.268;2023-12-14T05:36:05;94183.69;;;5.20;100.00
22647;BME280;11490;42.726;23.268;2023-12-14T05:38:34;94149.22;;;4.91;100.00
22647;BME280;11490;42.726;23.268;2023-12-14T05:41:00;94209.66;;;5.23;100.00
22647;BME280;11490;42.726;23.268;2023-12-14T05:43:25;94171.28;;;5.32;100.00
22647;BME280;11490;42.726;23.268;2023-12-14T05:45:51;94160.03;;;5.01;100.00
22647;BME280;11490;42.726;23.268;2023-12-14T05:48:16;94169.31;;;5.04;100.00
22647;BME280;11490;42.726;23.268;2023-12-14T05:50:44;94172.66;;;4.99;100.00
22647;BME280;11490;42.726;23.268;2023-12-14T05:53:10;94110.03;;;4.77;100.00
22647;BME280;11490;42.726;23.268;2023-12-14T05:55:35;94199.56;;;5.31;100.00
22647;BME280;11490;42.726;23.268;2023-12-14T05:58:01;94198.06;;;5.35;100.00
22647;BME280;11490;42.726;23.268;2023-12-14T06:00:35;94169.91;;;5.41;100.00
22647;BME280;11490;42.726;23.268;2023-12-14T06:03:01;94216.34;;;5.60;100.00
22647;BME280;11490;42.726;23.268;2023-12-14T06:05:29;94181.50;;;5.05;100.00
22647;BME280;11490;42.726;23.268;2023-12-14T06:08:13;94130.13;;;4.89;100.00
22647;BME280;11490;42.726;23.268;2023-12-14T06:10:38;94139.69;;;5.14;100.00
22647;BME280;11490;42.726;23.268;2023-12-14T06:13:04;94187.28;;;5.49;100.00
22647;BME280;11490;42.726;23.268;2023-12-14T06:15:29;94156.00;;;5.34;100.00
22647;BME280;11490;42.726;23.268;2023-12-14T06:17:55;94179.44;;;5.54;100.00
22647;BME280;11490;42.726;23.268;2023-12-14T06:20:20;94135.63;;;5.34;100.00
22647;BME280;11490;42.726;23.268;2023-12-14T06:22:46;94194.38;;;5.71;100.00
22647;BME280;11490;42.726;23.268;2023-12-14T06:25:11;94173.56;;;5.63;100.00
22647;BME280;11490;42.726;23.268;2023-12-14T06:27:37;94194.03;;;5.56;100.00
22647;BME280;11490;42.726;23.268;2023-12-14T06:30:06;94211.28;;;5.70;100.00
22647;BME280;11490;42.726;23.268;2023-12-14T06:32:35;94206.91;;;5.64;100.00
22647;BME280;11490;42.726;23.268;2023-12-14T06:35:01;94204.81;;;5.90;100.00
22647;BME280;11490;42.726;23.268;2023-12-14T06:37:26;94233.13;;;5.89;100.00
22647;BME280;11490;42.726;23.268;2023-12-14T06:42:44;94188.72;;;5.79;100.00
22647;BME280;11490;42.726;23.268;2023-12-14T06:45:10;94203.22;;;5.89;100.00
22647;BME280;11490;42.726;23.268;2023-12-14T06:47:35;94217.03;;;5.91;100.00
22647;BME280;11490;42.726;23.268;2023-12-14T06:50:00;94210.59;;;5.63;100.00
22647;BME280;11490;42.726;23.268;2023-12-14T06:52:26;94219.09;;;5.89;100.00
22647;BME280;11490;42.726;23.268;2023-12-14T06:54:51;94194.91;;;5.73;100.00
22647;BME280;11490;42.726;23.268;2023-12-14T06:57:19;94250.38;;;5.92;100.00
22647;BME280;11490;42.726;23.268;2023-12-14T06:59:45;94177.44;;;5.96;100.00
22647;BME280;11490;42.726;23.268;2023-12-14T07:02:11;94224.03;;;5.97;100.00
22647;BME280;11490;42.726;23.268;2023-12-14T07:04:36;94237.63;;;6.29;100.00
22647;BME280;11490;42.726;23.268;2023-12-14T07:07:02;94207.31;;;6.08;100.00
22647;BME280;11490;42.726;23.268;2023-12-14T07:09:30;94271.00;;;6.41;100.00
22647;BME280;11490;42.726;23.268;2023-12-14T07:11:56;94192.97;;;6.32;100.00
22647;BME280;11490;42.726;23.268;2023-12-14T07:14:24;94218.00;;;6.25;100.00
22647;BME280;11490;42.726;23.268;2023-12-14T07:16:52;94263.00;;;6.53;100.00
22647;BME280;11490;42.726;23.268;2023-12-14T07:19:28;94250.47;;;6.08;100.00
22647;BME280;11490;42.726;23.268;2023-12-14T07:21:53;94238.34;;;6.24;100.00
22647;BME280;11490;42.726;23.268;2023-12-14T07:24:19;94245.41;;;6.18;100.00
22647;BME280;11490;42.726;23.268;2023-12-14T07:26:44;94277.13;;;6.30;100.00
22647;BME280;11490;42.726;23.268;2023-12-14T07:29:10;94235.34;;;6.32;100.00
22647;BME280;11490;42.726;23.268;2023-12-14T07:31:35;94244.38;;;6.48;100.00
22647;BME280;11490;42.726;23.268;2023-12-14T07:34:01;94192.47;;;6.18;100.00
22647;BME280;11490;42.726;23.268;2023-12-14T07:36:26;94271.75;;;6.65;100.00
22647;BME280;11490;42.726;23.268;2023-12-14T07:38:51;94264.50;;;6.61;100.00
22647;BME280;11490;42.726;23.268;2023-12-14T07:41:18;94263.28;;;6.80;100.00
22647;BME280;11490;42.726;23.268;2023-12-14T07:43:55;94300.34;;;7.08;100.00
22647;BME280;11490;42.726;23.268;2023-12-14T07:46:40;94205.09;;;6.56;100.00
22647;BME280;11490;42.726;23.268;2023-12-14T07:49:15;94249.16;;;6.91;100.00
22647;BME280;11490;42.726;23.268;2023-12-14T07:51:40;94239.13;;;6.93;100.00
22647;BME280;11490;42.726;23.268;2023-12-14T07:54:31;94201.56;;;6.68;100.00
22647;BME280;11490;42.726;23.268;2023-12-14T07:57:24;94274.53;;;7.49;100.00
22647;BME280;11490;42.726;23.268;2023-12-14T07:59:49;94288.44;;;7.56;100.00
22647;BME280;11490;42.726;23.268;2023-12-14T08:02:15;94290.34;;;7.77;100.00
22647;BME280;11490;42.726;23.268;2023-12-14T08:04:40;94317.97;;;8.15;100.00
22647;BME280;11490;42.726;23.268;2023-12-14T08:07:06;94331.41;;;8.25;100.00
22647;BME280;11490;42.726;23.268;2023-12-14T08:09:31;94302.84;;;8.32;100.00
22647;BME280;11490;42.726;23.268;2023-12-14T08:11:57;94324.50;;;8.62;100.00
22647;BME280;11490;42.726;23.268;2023-12-14T08:14:22;94313.63;;;8.64;100.00
22647;BME280;11490;42.726;23.268;2023-12-14T08:16:48;94282.66;;;8.53;99.97
22647;BME280;11490;42.726;23.268;2023-12-14T08:19:13;94264.78;;;8.48;100.00
22647;BME280;11490;42.726;23.268;2023-12-14T08:21:38;94313.44;;;8.70;100.00
22647;BME280;11490;42.726;23.268;2023-12-14T08:24:04;94280.50;;;8.71;100.00
22647;BME280;11490;42.726;23.268;2023-12-14T08:26:29;94270.25;;;8.58;100.00
22647;BME280;11490;42.726;23.268;2023-12-14T08:28:55;94287.63;;;8.93;100.00
22647;BME280;11490;42.726;23.268;2023-12-14T08:31:20;94325.03;;;9.08;100.00
22647;BME280;11490;42.726;23.268;2023-12-14T08:33:46;94289.81;;;8.96;100.00
22647;BME280;11490;42.726;23.268;2023-12-14T08:36:15;94277.31;;;8.96;100.00
22647;BME280;11490;42.726;23.268;2023-12-14T08:38:41;94269.16;;;9.08;98.69
22647;BME280;11490;42.726;23.268;2023-12-14T08:41:06;94313.03;;;9.59;99.16
22647;BME280;11490;42.726;23.268;2023-12-14T08:43:31;94300.31;;;9.66;96.38
22647;BME280;11490;42.726;23.268;2023-12-14T08:45:57;94317.25;;;9.87;94.96
22647;BME280;11490;42.726;23.268;2023-12-14T08:48:25;94300.50;;;9.91;95.50
22647;BME280;11490;42.726;23.268;2023-12-14T08:50:53;94301.53;;;9.85;96.53
22647;BME280;11490;42.726;23.268;2023-12-14T08:53:19;94299.34;;;10.14;96.54
22647;BME280;11490;42.726;23.268;2023-12-14T08:55:44;94320.94;;;10.60;95.63
22647;BME280;11490;42.726;23.268;2023-12-14T08:58:10;94332.28;;;10.92;93.66
22647;BME280;11490;42.726;23.268;2023-12-14T09:00:35;94341.31;;;10.81;93.43
22647;BME280;11490;42.726;23.268;2023-12-14T09:03:01;94303.88;;;10.61;96.08
22647;BME280;11490;42.726;23.268;2023-12-14T09:05:26;94329.53;;;10.72;96.64
22647;BME280;11490;42.726;23.268;2023-12-14T09:07:52;94316.50;;;10.86;95.55
22647;BME280;11490;42.726;23.268;2023-12-14T09:10:20;94299.16;;;10.78;95.23
22647;BME280;11490;42.726;23.268;2023-12-14T09:12:48;94289.09;;;10.95;96.07
22647;BME280;11490;42.726;23.268;2023-12-14T09:15:16;94298.94;;;10.95;95.35
22647;BME280;11490;42.726;23.268;2023-12-14T09:17:45;94319.31;;;11.21;94.41
22647;BME280;11490;42.726;23.268;2023-12-14T09:20:11;94285.63;;;11.00;93.69
22647;BME280;11490;42.726;23.268;2023-12-14T09:22:40;94282.63;;;10.81;94.42
22647;BME280;11490;42.726;23.268;2023-12-14T09:25:06;94278.81;;;10.57;94.75
22647;BME280;11490;42.726;23.268;2023-12-14T09:27:37;94286.78;;;10.52;95.84
22647;BME280;11490;42.726;23.268;2023-12-14T09:30:19;94238.38;;;10.23;96.02
22647;BME280;11490;42.726;23.268;2023-12-14T09:33:04;94298.97;;;10.37;99.00
22647;BME280;11490;42.726;23.268;2023-12-14T09:35:31;94296.81;;;10.29;99.56
22647;BME280;11490;42.726;23.268;2023-12-14T09:37:59;94299.41;;;10.24;100.00
22647;BME280;11490;42.726;23.268;2023-12-14T09:40:25;94322.91;;;10.32;100.00
22647;BME280;11490;42.726;23.268;2023-12-14T09:42:50;94343.09;;;10.23;100.00
22647;BME280;11490;42.726;23.268;2023-12-14T09:45:16;94298.59;;;9.87;100.00
22647;BME280;11490;42.726;23.268;2023-12-14T09:47:42;94277.88;;;9.94;100.00
22647;BME280;11490;42.726;23.268;2023-12-14T09:50:09;94310.78;;;10.15;100.00
22647;BME280;11490;42.726;23.268;2023-12-14T09:52:35;94326.13;;;10.29;100.00
22647;BME280;11490;42.726;23.268;2023-12-14T09:55:00;94306.19;;;10.05;100.00
22647;BME280;11490;42.726;23.268;2023-12-14T09:57:29;94315.28;;;10.09;100.00
22647;BME280;11490;42.726;23.268;2023-12-14T09:59:55;94326.63;;;10.31;100.00
22647;BME280;11490;42.726;23.268;2023-12-14T10:02:25;94344.16;;;10.64;100.00
22647;BME280;11490;42.726;23.268;2023-12-14T10:04:53;94328.66;;;10.56;100.00
22647;BME280;11490;42.726;23.268;2023-12-14T10:07:22;94333.13;;;10.46;99.80
22647;BME280;11490;42.726;23.268;2023-12-14T10:09:48;94278.63;;;10.21;100.00
22647;BME280;11490;42.726;23.268;2023-12-14T10:12:13;94313.78;;;10.23;99.66
22647;BME280;11490;42.726;23.268;2023-12-14T10:14:45;94302.91;;;10.30;100.00
22647;BME280;11490;42.726;23.268;2023-12-14T10:17:18;94296.72;;;10.19;100.00
22647;BME280;11490;42.726;23.268;2023-12-14T10:19:45;94329.94;;;10.44;99.64
22647;BME280;11490;42.726;23.268;2023-12-14T10:22:13;94338.00;;;10.59;99.35
22647;BME280;11490;42.726;23.268;2023-12-14T10:24:43;94336.47;;;10.68;99.27
22647;BME280;11490;42.726;23.268;2023-12-14T10:27:09;94312.38;;;10.53;100.00
22647;BME280;11490;42.726;23.268;2023-12-14T10:29:39;94309.16;;;10.51;100.00
22647;BME280;11490;42.726;23.268;2023-12-14T10:32:06;94322.56;;;10.66;100.00
22647;BME280;11490;42.726;23.268;2023-12-14T10:34:33;94329.03;;;10.80;100.00
22647;BME280;11490;42.726;23.268;2023-12-14T10:36:59;94347.16;;;10.78;100.00
22647;BME280;11490;42.726;23.268;2023-12-14T10:39:26;94341.25;;;10.71;100.00
22647;BME280;11490;42.726;23.268;2023-12-14T10:41:53;94353.84;;;10.75;100.00
22647;BME280;11490;42.726;23.268;2023-12-14T10:44:25;94355.16;;;10.78;100.00
22647;BME280;11490;42.726;23.268;2023-12-14T10:46:54;94308.88;;;10.47;100.00
22647;BME280;11490;42.726;23.268;2023-12-14T10:49:23;94308.59;;;10.44;100.00
22647;BME280;11490;42.726;23.268;2023-12-14T10:51:48;94332.03;;;10.41;100.00
22647;BME280;11490;42.726;23.268;2023-12-14T10:54:15;94355.88;;;10.63;100.00
22647;BME280;11490;42.726;23.268;2023-12-14T10:56:41;94350.50;;;10.53;100.00
22647;BME280;11490;42.726;23.268;2023-12-14T10:59:30;94321.16;;;10.11;100.00
22647;BME280;11490;42.726;23.268;2023-12-14T11:03:05;94322.06;;;9.90;100.00
22647;BME280;11490;42.726;23.268;2023-12-14T11:05:34;94355.25;;;10.09;100.00
22647;BME280;11490;42.726;23.268;2023-12-14T11:08:12;94309.09;;;9.67;100.00
22647;BME280;11490;42.726;23.268;2023-12-14T11:10:54;94389.31;;;10.07;100.00
22647;BME280;11490;42.726;23.268;2023-12-14T11:13:23;94410.94;;;10.11;100.00
22647;BME280;11490;42.726;23.268;2023-12-14T11:15:51;94401.44;;;9.93;100.00
22647;BME280;11490;42.726;23.268;2023-12-14T11:18:21;94411.06;;;9.94;100.00
22647;BME280;11490;42.726;23.268;2023-12-14T11:20:49;94379.31;;;9.60;100.00
22647;BME280;11490;42.726;23.268;2023-12-14T11:23:16;94414.97;;;9.86;100.00
22647;BME280;11490;42.726;23.268;2023-12-14T11:25:48;94407.25;;;9.58;100.00
22647;BME280;11490;42.726;23.268;2023-12-14T11:28:14;94405.34;;;9.53;100.00
22647;BME280;11490;42.726;23.268;2023-12-14T11:30:42;94433.97;;;9.68;100.00
22647;BME280;11490;42.726;23.268;2023-12-14T11:33:08;94430.25;;;9.42;100.00
22647;BME280;11490;42.726;23.268;2023-12-14T11:35:33;94451.53;;;9.42;100.00
22647;BME280;11490;42.726;23.268;2023-12-14T11:37:59;94437.53;;;9.30;100.00
22647;BME280;11490;42.726;23.268;2023-12-14T11:40:31;94444.28;;;9.38;100.00
22647;BME280;11490;42.726;23.268;2023-12-14T11:43:00;94419.88;;;9.19;100.00
22647;BME280;11490;42.726;23.268;2023-12-14T11:45:27;94438.97;;;9.38;100.00
22647;BME280;11490;42.726;23.268;2023-12-14T11:47:53;94437.53;;;9.30;100.00
22647;BME280;11490;42.726;23.268;2023-12-14T11:50:18;94442.75;;;9.20;100.00
22647;BME280;11490;42.726;23.268;2023-12-14T11:52:44;94467.75;;;9.19;100.00
22647;BME280;11490;42.726;23.268;2023-12-14T11:55:13;94464.53;;;9.17;100.00
22647;BME280;11490;42.726;23.268;2023-12-14T11:57:39;94490.31;;;9.16;100.00
22647;BME280;11490;42.726;23.268;2023-12-14T12:00:06;94467.47;;;8.99;100.00
22647;BME280;11490;42.726;23.268;2023-12-14T12:02:34;94486.28;;;9.14;100.00
22647;BME280;11490;42.726;23.268;2023-12-14T12:05:00;94488.09;;;9.08;100.00
22647;BME280;11490;42.726;23.268;2023-12-14T12:07:31;94480.69;;;8.94;100.00
22647;BME280;11490;42.726;23.268;2023-12-14T12:09:58;94441.91;;;8.76;100.00
22647;BME280;11490;42.726;23.268;2023-12-14T12:13:00;94485.03;;;9.00;100.00
22647;BME280;11490;42.726;23.268;2023-12-14T12:15:26;94428.97;;;8.63;100.00
22647;BME280;11490;42.726;23.268;2023-12-14T12:17:51;94441.94;;;8.59;100.00
22647;BME280;11490;42.726;23.268;2023-12-14T12:20:19;94483.28;;;9.05;100.00
22647;BME280;11490;42.726;23.268;2023-12-14T12:22:44;94481.34;;;8.84;100.00
22647;BME280;11490;42.726;23.268;2023-12-14T12:25:44;94498.13;;;8.84;100.00
22647;BME280;11490;42.726;23.268;2023-12-14T12:28:24;94434.53;;;8.44;100.00
22647;BME280;11490;42.726;23.268;2023-12-14T12:31:10;94435.56;;;8.27;100.00
22647;BME280;11490;42.726;23.268;2023-12-14T12:33:50;94419.56;;;8.38;100.00
22647;BME280;11490;42.726;23.268;2023-12-14T12:36:47;94429.38;;;8.38;100.00
22647;BME280;11490;42.726;23.268;2023-12-14T12:42:55;94461.59;;;8.58;100.00
22647;BME280;11490;42.726;23.268;2023-12-14T12:45:28;94529.72;;;8.98;100.00
22647;BME280;11490;42.726;23.268;2023-12-14T12:51:20;94464.03;;;8.43;100.00
22647;BME280;11490;42.726;23.268;2023-12-14T12:54:31;94535.03;;;8.81;100.00
22647;BME280;11490;42.726;23.268;2023-12-14T12:57:49;94476.22;;;8.44;100.00
22647;BME280;11490;42.726;23.268;2023-12-14T13:07:05;94465.31;;;8.40;100.00
22647;BME280;11490;42.726;23.268;2023-12-14T13:09:31;94499.50;;;8.37;100.00